Time;durP1;ratioP1;P1;durP2;ratioP2;P2;SDS_P1;SDS_P2;PMS_P1;PMS_P2;Temp;Humidity;BMP_temperature;BMP_pressure;BME280_temperature;BME280_humidity;BME280_pressure;Samples;Min_cycle;Max_cycle;Signal;HPM_P1;HPM_P2
2022/03/24 00:01:34;;;;;;;52.95;38.47;;;6.20;99.90;;;;;;5049141;28;20407;-72
2022/03/24 00:03:59;;;;;;;63.90;41.20;;;6.20;99.90;;;;;;5034902;28;20050;-72
2022/03/24 00:06:25;;;;;;;60.25;40.05;;;6.20;99.90;;;;;;5034527;28;20630;-72
2022/03/24 00:08:50;;;;;;;59.50;40.75;;;6.10;99.90;;;;;;5033768;28;20049;-72
2022/03/24 00:11:17;;;;;;;66.72;43.15;;;6.10;99.90;;;;;;5035047;28;20388;-72
2022/03/24 00:13:43;;;;;;;58.50;39.95;;;6.10;99.90;;;;;;5033212;28;20056;-72
2022/03/24 00:16:09;;;;;;;58.05;39.03;;;6.00;99.90;;;;;;5035086;28;20054;-72
2022/03/24 00:18:35;;;;;;;66.53;43.55;;;6.00;99.90;;;;;;5035079;28;20056;-72
2022/03/24 00:21:01;;;;;;;79.53;46.83;;;5.90;99.90;;;;;;5032861;28;20045;-72
2022/03/24 00:23:27;;;;;;;64.40;45.17;;;6.00;99.90;;;;;;5033696;28;20429;-72
2022/03/24 00:25:53;;;;;;;65.63;42.88;;;6.00;99.90;;;;;;5034817;28;20046;-72
2022/03/24 00:28:19;;;;;;;67.78;44.00;;;6.00;99.90;;;;;;5032834;28;20057;-72
2022/03/24 00:30:45;;;;;;;71.88;45.20;;;6.00;99.90;;;;;;5033422;28;20392;-72
2022/03/24 00:33:11;;;;;;;73.68;47.30;;;6.10;99.90;;;;;;5033674;28;20052;-72
2022/03/24 00:35:37;;;;;;;70.95;46.80;;;6.10;99.90;;;;;;5033928;28;20049;-72
2022/03/24 00:38:05;;;;;;;68.30;46.33;;;6.10;99.90;;;;;;5033193;28;20038;-72
2022/03/24 00:40:32;;;;;;;74.68;47.78;;;6.00;99.90;;;;;;5034547;28;20053;-72
2022/03/24 00:42:59;;;;;;;66.13;42.25;;;6.00;99.90;;;;;;5033677;28;20112;-72
2022/03/24 00:45:25;;;;;;;67.22;43.55;;;6.00;99.90;;;;;;5034286;28;20483;-72
2022/03/24 00:47:51;;;;;;;66.22;44.72;;;6.00;99.90;;;;;;5032615;28;20048;-72
2022/03/24 00:50:18;;;;;;;69.10;45.03;;;5.90;99.90;;;;;;5032935;28;20048;-72
2022/03/24 00:52:45;;;;;;;75.35;46.67;;;5.90;99.90;;;;;;5033018;28;20156;-72
2022/03/24 00:55:15;;;;;;;70.38;46.45;;;5.80;99.90;;;;;;5033519;28;20064;-72
2022/03/24 00:57:42;;;;;;;67.78;44.85;;;5.90;99.90;;;;;;5034169;28;20048;-72
2022/03/24 01:00:16;;;;;;;71.90;46.90;;;5.80;99.90;;;;;;5033046;28;20052;-71
2022/03/24 01:02:44;;;;;;;67.40;45.92;;;5.80;99.90;;;;;;5032443;28;20072;-72
2022/03/24 01:05:12;;;;;;;71.43;45.55;;;5.80;99.90;;;;;;5032985;28;20041;-72
2022/03/24 01:07:38;;;;;;;77.82;52.05;;;5.80;99.90;;;;;;5033983;28;20419;-72
2022/03/24 01:10:05;;;;;;;71.53;47.30;;;5.70;99.90;;;;;;5032168;28;20157;-72
2022/03/24 01:12:30;;;;;;;77.90;48.65;;;5.70;99.90;;;;;;5032431;28;20037;-72
2022/03/24 01:14:56;;;;;;;75.25;45.83;;;5.70;99.90;;;;;;5033440;28;20391;-72
2022/03/24 01:17:23;;;;;;;70.22;46.10;;;5.70;99.90;;;;;;5033218;28;20476;-72
2022/03/24 01:19:49;;;;;;;70.68;47.13;;;5.70;99.90;;;;;;5032434;28;20050;-72
2022/03/24 01:22:15;;;;;;;72.63;47.20;;;5.70;99.90;;;;;;5033735;28;20067;-72
2022/03/24 01:24:41;;;;;;;72.65;47.35;;;5.60;99.90;;;;;;5031871;28;20599;-72
2022/03/24 01:27:07;;;;;;;75.15;48.25;;;5.60;99.90;;;;;;5033808;28;20484;-72
2022/03/24 01:29:33;;;;;;;80.93;47.28;;;5.60;99.90;;;;;;5032145;28;20088;-72
2022/03/24 01:31:59;;;;;;;75.18;47.33;;;5.60;99.90;;;;;;5031454;28;20049;-72
2022/03/24 01:34:26;;;;;;;69.53;48.60;;;5.60;99.90;;;;;;5032281;28;20403;-72
2022/03/24 01:36:52;;;;;;;72.55;47.05;;;5.60;99.90;;;;;;5032079;28;20132;-72
2022/03/24 01:39:17;;;;;;;72.55;46.50;;;5.60;99.90;;;;;;5031321;28;20376;-72
2022/03/24 01:41:47;;;;;;;73.05;46.25;;;5.50;99.90;;;;;;5032348;28;20045;-72
2022/03/24 01:44:14;;;;;;;68.05;45.08;;;5.50;99.90;;;;;;5032728;28;20037;-72
2022/03/24 01:47:08;;;;;;;80.00;47.58;;;5.40;99.90;;;;;;5033321;28;20072;-72
2022/03/24 01:49:40;;;;;;;75.00;46.00;;;5.40;99.90;;;;;;5032174;28;20053;-72
2022/03/24 01:52:07;;;;;;;75.72;47.00;;;5.40;99.90;;;;;;5031104;28;20045;-72
2022/03/24 01:54:35;;;;;;;72.35;46.88;;;5.40;99.90;;;;;;5031957;28;20481;-72
2022/03/24 01:57:01;;;;;;;68.53;43.85;;;5.40;99.90;;;;;;5033226;28;20108;-72
2022/03/24 01:59:27;;;;;;;76.30;49.33;;;5.40;99.90;;;;;;5031216;28;20041;-72
2022/03/24 02:01:53;;;;;;;76.70;48.13;;;5.40;99.90;;;;;;5031952;28;20064;-72
2022/03/24 02:04:21;;;;;;;72.30;47.10;;;5.30;99.90;;;;;;5032843;28;20526;-72
2022/03/24 02:06:48;;;;;;;75.07;46.80;;;5.40;99.90;;;;;;5031254;28;20125;-72
2022/03/24 02:09:15;;;;;;;76.85;47.83;;;5.30;99.90;;;;;;5031856;28;20052;-72
2022/03/24 02:11:41;;;;;;;70.93;45.53;;;5.30;99.90;;;;;;5031634;28;20045;-72
2022/03/24 02:14:08;;;;;;;72.30;47.13;;;5.30;99.90;;;;;;5032178;28;20037;-72
2022/03/24 02:16:36;;;;;;;74.10;46.50;;;5.20;99.90;;;;;;5031475;28;20052;-72
2022/03/24 02:19:11;;;;;;;69.38;44.45;;;5.20;99.90;;;;;;5032926;28;20038;-72
2022/03/24 02:21:40;;;;;;;73.00;44.55;;;5.10;99.90;;;;;;5032355;28;20045;-72
2022/03/24 02:24:07;;;;;;;68.70;43.70;;;5.10;99.90;;;;;;5031412;28;20044;-72
2022/03/24 02:26:35;;;;;;;74.78;47.28;;;5.10;99.90;;;;;;5029695;28;20507;-71
2022/03/24 02:29:07;;;;;;;76.00;47.55;;;5.00;99.90;;;;;;5042568;28;20727;-72
2022/03/24 02:31:53;;;;;;;73.07;46.10;;;5.00;99.90;;;;;;5051208;28;20132;-72
2022/03/24 02:37:10;;;;;;;76.32;45.50;;;5.00;99.90;;;;;;5031316;28;20496;-72
2022/03/24 02:39:40;;;;;;;78.53;46.17;;;5.00;99.90;;;;;;5031152;28;20045;-72
2022/03/24 02:42:09;;;;;;;65.78;42.08;;;5.00;99.90;;;;;;5030572;28;20538;-72
2022/03/24 02:44:35;;;;;;;73.22;45.65;;;5.00;99.90;;;;;;5032346;28;20488;-72
2022/03/24 02:47:02;;;;;;;74.82;47.75;;;5.00;99.90;;;;;;5032520;28;20041;-72
2022/03/24 02:49:30;;;;;;;80.13;49.90;;;4.90;99.90;;;;;;5030192;28;20073;-72
2022/03/24 02:51:58;;;;;;;77.85;47.17;;;4.90;99.90;;;;;;5032208;28;20041;-72
2022/03/24 02:54:25;;;;;;;80.63;48.08;;;5.00;99.90;;;;;;5032411;28;20053;-72
2022/03/24 02:56:50;;;;;;;77.70;47.30;;;4.90;99.90;;;;;;5030795;28;20045;-72
2022/03/24 02:59:17;;;;;;;73.65;45.92;;;4.90;99.90;;;;;;5031124;28;20159;-73
2022/03/24 03:01:49;;;;;;;75.43;46.67;;;4.90;99.90;;;;;;5030368;28;20124;-72
2022/03/24 03:04:15;;;;;;;81.20;50.03;;;4.80;99.90;;;;;;5032418;28;20072;-72
2022/03/24 03:06:40;;;;;;;75.20;46.80;;;4.80;99.90;;;;;;5041966;28;20126;-72
2022/03/24 03:09:06;;;;;;;72.65;45.10;;;4.80;99.90;;;;;;5039814;28;20052;-72
2022/03/24 03:11:32;;;;;;;78.22;47.25;;;4.70;99.90;;;;;;5038942;28;20056;-72
2022/03/24 03:13:59;;;;;;;81.03;49.60;;;4.70;99.90;;;;;;5039417;28;20053;-72
2022/03/24 03:16:26;;;;;;;82.47;49.90;;;4.70;99.90;;;;;;5041001;28;20049;-72
2022/03/24 03:18:53;;;;;;;73.13;45.75;;;4.70;99.90;;;;;;5040379;28;20041;-72
2022/03/24 03:21:19;;;;;;;80.32;49.03;;;4.60;99.90;;;;;;5050725;28;20517;-72
2022/03/24 03:23:45;;;;;;;80.68;50.10;;;4.60;99.90;;;;;;5034042;28;20500;-72
2022/03/24 03:26:12;;;;;;;78.13;46.88;;;4.60;99.90;;;;;;5035852;28;20095;-72
2022/03/24 03:28:39;;;;;;;76.13;45.83;;;4.60;99.90;;;;;;5040628;28;20053;-72
2022/03/24 03:31:05;;;;;;;74.45;47.42;;;4.60;99.90;;;;;;5029885;28;20459;-72
2022/03/24 03:33:32;;;;;;;76.25;46.45;;;4.50;99.90;;;;;;5030540;28;20037;-73
2022/03/24 03:35:58;;;;;;;78.80;47.22;;;4.60;99.90;;;;;;5032001;28;20466;-72
2022/03/24 03:38:24;;;;;;;74.25;43.88;;;4.50;99.90;;;;;;5033706;28;20065;-72
2022/03/24 03:40:50;;;;;;;78.55;49.40;;;4.50;99.90;;;;;;5035762;28;20451;-72
2022/03/24 03:43:17;;;;;;;78.13;46.35;;;4.40;99.90;;;;;;5034290;28;20140;-72
2022/03/24 03:45:44;;;;;;;78.13;48.13;;;4.40;99.90;;;;;;5033505;28;20665;-72
2022/03/24 03:48:11;;;;;;;82.32;47.97;;;4.40;99.90;;;;;;5034156;28;20064;-72
2022/03/24 03:50:38;;;;;;;68.60;42.22;;;4.40;99.90;;;;;;5035395;28;20037;-72
2022/03/24 03:53:03;;;;;;;60.33;38.42;;;4.40;99.90;;;;;;5034867;28;20049;-72
2022/03/24 03:55:30;;;;;;;56.42;35.83;;;4.30;99.90;;;;;;5034042;28;20141;-72
2022/03/24 03:57:56;;;;;;;55.95;34.15;;;4.30;99.90;;;;;;5033232;28;20046;-72
2022/03/24 04:03:06;;;;;;;57.92;34.60;;;4.30;99.90;;;;;;5034152;28;20396;-72
2022/03/24 04:05:33;;;;;;;58.33;35.17;;;4.30;99.90;;;;;;5033123;28;20049;-73
2022/03/24 04:07:59;;;;;;;54.30;33.35;;;4.20;99.90;;;;;;5034148;28;20491;-72
2022/03/24 04:10:27;;;;;;;51.78;33.25;;;4.20;99.90;;;;;;5034010;28;20041;-72
2022/03/24 04:13:02;;;;;;;59.78;37.47;;;4.10;99.90;;;;;;5034442;28;20038;-72
2022/03/24 04:15:28;;;;;;;62.00;36.25;;;4.10;99.90;;;;;;5034872;28;20060;-72
2022/03/24 04:17:55;;;;;;;62.72;38.30;;;4.10;99.90;;;;;;5034977;28;20053;-72
2022/03/24 04:20:21;;;;;;;63.45;39.85;;;4.10;99.90;;;;;;5032992;28;20086;-72
2022/03/24 04:22:50;;;;;;;65.70;39.85;;;4.10;99.90;;;;;;5033792;28;20049;-72
2022/03/24 04:25:22;;;;;;;60.63;38.78;;;4.10;99.90;;;;;;5034913;28;20045;-72
2022/03/24 04:27:49;;;;;;;56.53;35.25;;;4.10;99.90;;;;;;5033959;28;20391;-72
2022/03/24 04:30:16;;;;;;;61.38;36.47;;;4.10;99.90;;;;;;5033406;28;20061;-72
2022/03/24 04:32:42;;;;;;;54.47;33.47;;;4.10;99.90;;;;;;5033629;28;20103;-72
2022/03/24 04:35:09;;;;;;;61.65;38.55;;;4.10;99.90;;;;;;5032793;28;20056;-72
2022/03/24 04:37:36;;;;;;;57.67;35.22;;;4.10;99.90;;;;;;5033590;28;20576;-72
2022/03/24 04:40:03;;;;;;;68.55;42.17;;;4.00;99.90;;;;;;5033900;28;20052;-72
2022/03/24 04:42:29;;;;;;;67.00;38.63;;;4.00;99.90;;;;;;5034383;28;20045;-72
2022/03/24 04:44:56;;;;;;;70.95;44.78;;;4.00;99.90;;;;;;5034664;28;20045;-72
2022/03/24 04:47:21;;;;;;;74.82;45.47;;;3.90;99.90;;;;;;5032448;28;20060;-72
2022/03/24 04:49:47;;;;;;;74.85;43.50;;;3.90;99.90;;;;;;5032449;28;20038;-72
2022/03/24 04:52:13;;;;;;;72.10;42.90;;;3.90;99.90;;;;;;5033322;28;20057;-72
2022/03/24 04:54:38;;;;;;;72.13;43.58;;;3.90;99.90;;;;;;5033601;28;20040;-72
2022/03/24 04:57:05;;;;;;;74.97;45.25;;;3.90;99.90;;;;;;5034118;28;20491;-72
2022/03/24 04:59:31;;;;;;;73.40;44.90;;;3.80;99.90;;;;;;5033177;28;20045;-72
2022/03/24 05:01:56;;;;;;;77.63;46.80;;;3.90;99.90;;;;;;5033699;28;20115;-72
2022/03/24 05:04:23;;;;;;;74.82;45.05;;;3.90;99.90;;;;;;5033217;28;20048;-72
2022/03/24 05:06:49;;;;;;;73.40;44.60;;;3.90;99.90;;;;;;5046249;28;20041;-72
2022/03/24 05:09:15;;;;;;;69.72;42.92;;;3.80;99.90;;;;;;5039675;28;20057;-72
2022/03/24 05:11:41;;;;;;;82.15;45.03;;;3.80;99.90;;;;;;5033851;28;20037;-72
2022/03/24 05:14:08;;;;;;;69.68;42.60;;;3.80;99.90;;;;;;5039784;28;20118;-72
2022/03/24 05:16:34;;;;;;;71.50;42.83;;;3.80;99.90;;;;;;5053118;28;20049;-72
2022/03/24 05:19:00;;;;;;;73.60;43.08;;;3.80;99.90;;;;;;5052682;28;20099;-72
2022/03/24 05:21:25;;;;;;;69.25;42.40;;;3.80;99.90;;;;;;5052421;28;20506;-72
2022/03/24 05:23:51;;;;;;;69.03;43.40;;;3.70;99.90;;;;;;5052971;28;20106;-72
2022/03/24 05:26:23;;;;;;;76.40;45.90;;;3.70;99.90;;;;;;5052208;28;20045;-72
2022/03/24 05:28:49;;;;;;;73.17;42.90;;;3.70;99.90;;;;;;5052207;28;20080;-72
2022/03/24 05:31:16;;;;;;;68.95;42.58;;;3.70;99.90;;;;;;5051549;28;20392;-72
2022/03/24 05:33:41;;;;;;;71.97;45.75;;;3.70;99.90;;;;;;5052339;28;20053;-72
2022/03/24 05:36:07;;;;;;;70.55;44.45;;;3.70;99.90;;;;;;5046119;28;20124;-72
2022/03/24 05:38:32;;;;;;;75.28;45.45;;;3.60;99.90;;;;;;5039491;28;20042;-73
2022/03/24 05:40:58;;;;;;;76.35;46.55;;;3.60;99.90;;;;;;5032164;28;20049;-72
2022/03/24 05:43:24;;;;;;;73.53;46.30;;;3.70;99.90;;;;;;5032459;28;20041;-73
2022/03/24 05:45:50;;;;;;;73.10;43.20;;;3.70;99.90;;;;;;5033483;28;20056;-72
2022/03/24 05:48:16;;;;;;;69.95;42.72;;;3.70;99.90;;;;;;5033954;28;20037;-72
2022/03/24 05:50:43;;;;;;;73.63;43.10;;;3.70;99.90;;;;;;5040428;28;20077;-72
2022/03/24 05:53:09;;;;;;;68.25;40.97;;;3.70;99.90;;;;;;5044802;28;20033;-72
2022/03/24 05:55:37;;;;;;;65.72;40.08;;;3.70;99.90;;;;;;5038693;28;20049;-72
2022/03/24 05:58:04;;;;;;;69.13;39.90;;;3.70;99.90;;;;;;5043629;28;20055;-72
2022/03/24 06:00:30;;;;;;;64.47;40.50;;;3.70;99.90;;;;;;5051540;28;20082;-71
2022/03/24 06:02:56;;;;;;;66.28;38.95;;;3.80;99.90;;;;;;5051646;28;20084;-72
2022/03/24 06:05:23;;;;;;;72.55;43.08;;;3.80;99.90;;;;;;5033869;28;20483;-72
2022/03/24 06:07:49;;;;;;;64.80;37.80;;;3.80;99.90;;;;;;5034396;28;20041;-72
2022/03/24 06:10:15;;;;;;;65.80;37.33;;;3.80;99.90;;;;;;5031891;28;20049;-72
2022/03/24 06:12:41;;;;;;;69.10;41.05;;;3.80;99.90;;;;;;5033765;28;20033;-72
2022/03/24 06:15:07;;;;;;;54.53;33.42;;;3.80;99.90;;;;;;5035812;28;20057;-72
2022/03/24 06:17:34;;;;;;;52.40;32.40;;;3.90;99.90;;;;;;5032932;28;20045;-72
2022/03/24 06:20:01;;;;;;;54.22;33.33;;;3.90;99.90;;;;;;5032093;28;20069;-72
2022/03/24 06:22:28;;;;;;;56.25;34.03;;;4.00;99.90;;;;;;5032734;28;20038;-73
2022/03/24 06:24:54;;;;;;;55.75;33.17;;;4.00;99.90;;;;;;5032612;28;20049;-71
2022/03/24 06:27:20;;;;;;;51.00;30.50;;;4.10;99.90;;;;;;5032084;28;20055;-71
2022/03/24 06:29:47;;;;;;;48.35;29.75;;;4.10;99.90;;;;;;5031207;28;20132;-71
2022/03/24 06:32:13;;;;;;;47.25;29.35;;;4.20;99.90;;;;;;5034523;28;20475;-71
2022/03/24 06:34:39;;;;;;;49.75;31.52;;;4.20;99.90;;;;;;5036035;28;20480;-71
2022/03/24 06:37:05;;;;;;;45.22;29.85;;;4.30;99.90;;;;;;5045316;28;20049;-71
2022/03/24 06:39:31;;;;;;;43.60;28.40;;;4.30;99.90;;;;;;5052047;28;20461;-70
2022/03/24 06:41:56;;;;;;;45.28;30.30;;;4.30;99.90;;;;;;5051154;28;20049;-70
2022/03/24 06:44:22;;;;;;;46.60;29.00;;;4.40;99.90;;;;;;5042339;28;20042;-70
2022/03/24 06:46:48;;;;;;;43.42;29.45;;;4.50;99.90;;;;;;5031590;28;20033;-70
2022/03/24 06:49:15;;;;;;;43.88;25.45;;;4.50;99.90;;;;;;5038011;28;20412;-71
2022/03/24 06:51:41;;;;;;;37.33;25.88;;;4.60;99.90;;;;;;5038261;28;20472;-70
2022/03/24 06:54:07;;;;;;;54.20;31.60;;;4.80;99.90;;;;;;5030495;28;20104;-70
2022/03/24 06:56:32;;;;;;;45.10;29.88;;;4.90;99.90;;;;;;5036537;28;20084;-70
2022/03/24 06:58:58;;;;;;;48.05;32.13;;;5.00;99.90;;;;;;5033406;28;20127;-70
2022/03/24 07:01:24;;;;;;;50.25;33.10;;;5.10;99.90;;;;;;5032680;28;20080;-70
2022/03/24 07:03:50;;;;;;;61.15;37.15;;;5.20;99.90;;;;;;5029994;28;20499;-70
2022/03/24 07:06:16;;;;;;;58.70;35.78;;;5.30;99.90;;;;;;5047777;28;20041;-70
2022/03/24 07:08:41;;;;;;;81.15;48.72;;;5.40;99.90;;;;;;5037111;28;20040;-70
2022/03/24 07:11:07;;;;;;;80.63;52.10;;;5.50;99.90;;;;;;5032113;28;20056;-70
2022/03/24 07:13:33;;;;;;;94.38;54.20;;;5.60;99.90;;;;;;5039468;28;20049;-70
2022/03/24 07:15:58;;;;;;;81.13;51.80;;;5.70;99.90;;;;;;5034756;28;20049;-70
2022/03/24 07:18:24;;;;;;;84.22;50.55;;;5.80;99.90;;;;;;5038474;28;20480;-70
2022/03/24 07:20:50;;;;;;;78.68;48.63;;;5.90;99.90;;;;;;5038933;28;20047;-70
2022/03/24 07:23:17;;;;;;;86.60;52.60;;;6.00;99.90;;;;;;5035583;28;20136;-71
2022/03/24 07:25:43;;;;;;;84.93;50.75;;;6.10;99.90;;;;;;5039341;28;20041;-71
2022/03/24 07:28:10;;;;;;;90.60;56.50;;;6.20;99.90;;;;;;5036325;28;20096;-70
2022/03/24 07:30:36;;;;;;;88.97;57.13;;;6.40;99.90;;;;;;5042989;28;20060;-71
2022/03/24 07:33:02;;;;;;;95.57;58.97;;;6.50;99.90;;;;;;5046397;28;20069;-70
2022/03/24 07:35:31;;;;;;;86.20;52.97;;;6.70;99.90;;;;;;5037270;28;20472;-71
2022/03/24 07:37:57;;;;;;;94.93;57.80;;;6.80;99.90;;;;;;5042482;28;20452;-70
2022/03/24 07:40:23;;;;;;;84.57;55.45;;;7.00;99.90;;;;;;5048008;28;20438;-71
2022/03/24 07:42:52;;;;;;;94.85;58.80;;;7.10;99.90;;;;;;5044712;28;20064;-72
2022/03/24 07:45:18;;;;;;;91.90;57.03;;;7.20;99.90;;;;;;5046823;28;20057;-71
2022/03/24 07:48:09;;;;;;;87.65;55.90;;;7.30;99.90;;;;;;5044855;28;20041;-71
2022/03/24 07:50:36;;;;;;;87.20;57.05;;;7.50;99.90;;;;;;5045351;28;20214;-71
2022/03/24 07:53:14;;;;;;;100.60;58.63;;;7.60;99.90;;;;;;5041155;28;20583;-71
2022/03/24 07:55:44;;;;;;;79.95;53.17;;;7.70;99.90;;;;;;5036200;28;20104;-72
2022/03/24 07:58:13;;;;;;;84.03;54.42;;;7.80;99.90;;;;;;5036315;28;20049;-70
2022/03/24 08:00:40;;;;;;;78.93;54.15;;;8.00;99.90;;;;;;5043920;28;20052;-72
2022/03/24 08:03:14;;;;;;;85.93;54.97;;;8.10;99.90;;;;;;5034087;28;20087;-71
2022/03/24 08:05:40;;;;;;;80.43;53.50;;;8.20;99.90;;;;;;5033149;28;20072;-72
2022/03/24 08:08:08;;;;;;;79.03;53.38;;;8.30;99.90;;;;;;5033567;28;20551;-72
2022/03/24 08:10:34;;;;;;;81.93;52.67;;;8.40;99.90;;;;;;5034840;28;20120;-73
2022/03/24 08:12:59;;;;;;;78.82;50.78;;;8.50;99.90;;;;;;5033026;28;20462;-72
2022/03/24 08:15:25;;;;;;;77.80;51.45;;;8.60;99.90;;;;;;5034709;28;20045;-72
2022/03/24 08:17:51;;;;;;;80.57;52.08;;;8.70;99.90;;;;;;5033650;28;20048;-73
2022/03/24 08:20:16;;;;;;;77.47;51.20;;;8.90;99.90;;;;;;5032716;28;20373;-72
2022/03/24 08:22:42;;;;;;;73.35;49.80;;;9.00;99.90;;;;;;5032878;28;20042;-72
2022/03/24 08:25:11;;;;;;;75.03;48.92;;;9.10;99.90;;;;;;5034433;28;20056;-72
2022/03/24 08:27:37;;;;;;;75.50;49.53;;;9.30;99.90;;;;;;5050083;28;20050;-71
2022/03/24 08:30:04;;;;;;;70.03;47.28;;;9.40;99.90;;;;;;5033086;28;20119;-72
2022/03/24 08:32:29;;;;;;;73.78;48.28;;;9.60;99.90;;;;;;5032497;28;20103;-74
2022/03/24 08:34:55;;;;;;;71.55;49.28;;;9.70;99.90;;;;;;5034606;28;20041;-74
2022/03/24 08:37:21;;;;;;;74.72;50.33;;;9.80;99.90;;;;;;5053867;28;20076;-74
2022/03/24 08:39:46;;;;;;;72.15;48.55;;;9.90;99.90;;;;;;5051535;28;20048;-75
2022/03/24 08:42:12;;;;;;;71.45;48.88;;;10.00;99.90;;;;;;5032938;28;20099;-73
2022/03/24 08:44:37;;;;;;;73.93;47.90;;;10.20;99.90;;;;;;5033328;28;20403;-73
2022/03/24 08:47:05;;;;;;;68.32;46.78;;;10.30;99.90;;;;;;5033152;28;20124;-73
2022/03/24 08:49:31;;;;;;;67.70;45.92;;;10.40;99.90;;;;;;5040798;28;20041;-73
2022/03/24 08:51:57;;;;;;;67.63;44.25;;;10.50;99.90;;;;;;5041083;28;20148;-73
2022/03/24 08:54:23;;;;;;;71.35;45.45;;;10.70;99.90;;;;;;5032410;28;20148;-73
2022/03/24 08:56:48;;;;;;;68.35;45.67;;;10.80;99.90;;;;;;5032722;28;20049;-73
2022/03/24 08:59:14;;;;;;;70.05;45.17;;;10.90;99.90;;;;;;5040897;28;20041;-73
2022/03/24 09:01:41;;;;;;;68.13;44.90;;;11.10;99.90;;;;;;5053093;28;20044;-73
2022/03/24 09:04:07;;;;;;;71.07;46.50;;;11.20;99.90;;;;;;5053860;28;20152;-73
2022/03/24 09:06:33;;;;;;;65.25;44.35;;;11.30;99.90;;;;;;5052511;28;20072;-73
2022/03/24 09:08:58;;;;;;;69.72;44.70;;;11.40;99.90;;;;;;5051865;28;20177;-73
2022/03/24 09:11:24;;;;;;;61.65;43.80;;;11.50;99.90;;;;;;5052558;28;20048;-73
2022/03/24 09:13:51;;;;;;;73.63;44.47;;;11.60;99.90;;;;;;5052171;28;20546;-73
2022/03/24 09:16:17;;;;;;;59.67;41.03;;;11.70;99.90;;;;;;5051705;28;20053;-75
2022/03/24 09:18:42;;;;;;;63.45;42.65;;;11.80;99.90;;;;;;5052087;28;20052;-74
2022/03/24 09:21:09;;;;;;;65.63;44.08;;;12.00;99.90;;;;;;5052030;28;20490;-74
2022/03/24 09:23:35;;;;;;;63.40;43.60;;;12.10;99.90;;;;;;5050941;28;20067;-74
2022/03/24 09:26:01;;;;;;;63.03;43.00;;;12.20;99.90;;;;;;5052135;28;20053;-74
2022/03/24 09:28:27;;;;;;;67.60;43.97;;;12.30;99.90;;;;;;5050811;28;20572;-69
2022/03/24 09:30:56;;;;;;;64.43;44.22;;;12.40;99.90;;;;;;5051935;28;20048;-75
2022/03/24 09:33:22;;;;;;;63.75;43.45;;;12.50;99.90;;;;;;5053225;28;20459;-75
2022/03/24 09:35:49;;;;;;;63.55;44.00;;;12.60;99.90;;;;;;5050846;28;20475;-75
2022/03/24 09:38:14;;;;;;;67.43;44.53;;;12.60;99.90;;;;;;5053139;28;20099;-75
2022/03/24 09:40:41;;;;;;;70.68;43.80;;;12.70;99.90;;;;;;5053125;28;20045;-78
2022/03/24 09:43:07;;;;;;;72.18;48.05;;;12.80;99.90;;;;;;5051406;28;20041;-76
2022/03/24 09:45:33;;;;;;;68.43;46.05;;;12.80;99.90;;;;;;5036053;28;20046;-74
2022/03/24 09:48:00;;;;;;;69.70;46.58;;;12.90;99.90;;;;;;5030430;28;20053;-74
2022/03/24 09:50:28;;;;;;;64.07;44.08;;;12.90;99.90;;;;;;5035094;28;20046;-75
2022/03/24 09:52:54;;;;;;;67.05;46.03;;;12.90;99.90;;;;;;5046276;28;20049;-74
2022/03/24 09:55:20;;;;;;;64.50;43.25;;;13.00;99.90;;;;;;5030721;28;20415;-75
2022/03/24 09:57:47;;;;;;;66.45;45.20;;;13.10;99.90;;;;;;5031663;28;20038;-74
2022/03/24 10:00:14;;;;;;;65.07;46.70;;;13.20;99.90;;;;;;5030489;28;20555;-77
2022/03/24 10:02:40;;;;;;;64.70;44.63;;;13.20;99.90;;;;;;5030012;28;20488;-70
2022/03/24 10:05:08;;;;;;;68.40;44.10;;;13.40;99.90;;;;;;5039800;28;20037;-69
2022/03/24 10:07:44;;;;;;;64.35;44.88;;;13.40;99.90;;;;;;5040417;28;20041;-69
2022/03/24 10:10:23;;;;;;;63.40;44.40;;;13.50;99.90;;;;;;5040930;28;20064;-75
2022/03/24 10:12:49;;;;;;;57.45;41.97;;;13.50;99.90;;;;;;5032155;28;20060;-76
2022/03/24 10:15:15;;;;;;;62.50;43.03;;;13.50;99.90;;;;;;5031570;28;20187;-77
2022/03/24 10:17:53;;;;;;;59.63;41.60;;;14.10;99.90;;;;;;5030597;28;20056;-76
2022/03/24 10:20:20;;;;;;;68.28;43.15;;;13.70;99.90;;;;;;5031574;28;20041;-75
2022/03/24 10:22:59;;;;;;;58.97;41.03;;;13.70;99.90;;;;;;5037262;28;20093;-75
2022/03/24 10:25:33;;;;;;;55.72;40.03;;;13.80;99.90;;;;;;5048774;28;20054;-74
2022/03/24 10:28:03;;;;;;;59.75;45.03;;;13.90;99.90;;;;;;5051261;28;20098;-73
2022/03/24 10:30:48;;;;;;;60.20;42.40;;;14.00;99.90;;;;;;5051016;28;20053;-75
2022/03/24 10:33:39;;;;;;;58.05;42.08;;;14.10;99.90;;;;;;5050536;28;20640;-74
2022/03/24 10:36:04;;;;;;;58.20;41.80;;;14.10;99.90;;;;;;5038989;28;20080;-75
2022/03/24 10:38:35;;;;;;;56.00;39.83;;;14.10;99.90;;;;;;5037890;28;20079;-73
2022/03/24 10:41:14;;;;;;;58.38;42.85;;;14.20;99.90;;;;;;5034691;28;20064;-74
2022/03/24 10:43:39;;;;;;;54.35;41.03;;;14.30;99.90;;;;;;5043000;28;20060;-74
2022/03/24 10:46:19;;;;;;;57.72;40.28;;;14.30;99.90;;;;;;5029643;28;20551;-76
2022/03/24 10:48:49;;;;;;;60.92;39.75;;;14.30;99.90;;;;;;5031300;28;20088;-77
2022/03/24 10:51:25;;;;;;;52.30;36.67;;;14.30;99.90;;;;;;5036819;28;20044;-76
2022/03/24 10:53:53;;;;;;;61.30;37.78;;;14.40;99.90;;;;;;5050426;28;20079;-76
2022/03/24 10:56:33;;;;;;;54.38;36.42;;;14.40;99.90;;;;;;5052226;28;20059;-73
2022/03/24 10:59:03;;;;;;;54.33;38.97;;;14.50;99.90;;;;;;5052021;28;20059;-75
2022/03/24 11:01:31;;;;;;;54.38;35.80;;;14.50;99.90;;;;;;5041794;28;20046;-74
2022/03/24 11:03:57;;;;;;;52.72;38.72;;;14.60;99.90;;;;;;5030868;28;20052;-73
2022/03/24 11:06:22;;;;;;;56.50;37.83;;;14.60;99.90;;;;;;5032367;28;20045;-75
2022/03/24 11:08:56;;;;;;;52.17;37.40;;;14.70;99.90;;;;;;5030017;28;20065;-73
2022/03/24 11:11:22;;;;;;;52.03;37.97;;;14.80;99.90;;;;;;5033708;28;20052;-75
2022/03/24 11:13:52;;;;;;;52.95;39.08;;;14.90;99.90;;;;;;5033629;28;20057;-76
2022/03/24 11:16:28;;;;;;;60.50;39.83;;;14.90;99.90;;;;;;5036394;28;20076;-77
2022/03/24 11:18:56;;;;;;;53.80;37.97;;;14.90;99.90;;;;;;5033992;28;20368;-77
2022/03/24 11:21:58;;;;;;;54.53;37.97;;;14.90;99.90;;;;;;5036182;28;20099;-76
2022/03/24 11:24:24;;;;;;;50.35;36.67;;;14.80;99.90;;;;;;5030541;28;20080;-76
2022/03/24 11:26:51;;;;;;;48.90;34.50;;;14.80;99.90;;;;;;5030417;28;20037;-77
2022/03/24 11:32:08;;;;;;;45.53;33.35;;;14.80;99.90;;;;;;5031730;28;20049;-76
2022/03/24 11:34:34;;;;;;;50.28;34.30;;;14.90;97.90;;;;;;5033525;28;20200;-76
2022/03/24 11:49:24;;;;;;;44.45;33.60;;;14.80;95.80;;;;;;5143619;27;20372;-71
2022/03/24 11:51:56;;;;;;;46.40;35.05;;;15.20;78.80;;;;;;5117586;28;20043;-71
2022/03/24 11:54:30;;;;;;;43.60;33.40;;;15.10;78.30;;;;;;5137427;27;20040;-71
2022/03/24 11:57:27;;;;;;;38.75;29.52;;;15.10;77.70;;;;;;5111999;27;20039;-73
2022/03/24 12:00:14;;;;;;;41.90;30.67;;;15.10;74.80;;;;;;5090919;27;20063;-72
2022/03/24 12:02:45;;;;;;;37.17;29.27;;;15.10;75.80;;;;;;5122221;27;20046;-73
2022/03/24 12:05:11;;;;;;;43.13;29.95;;;15.20;74.00;;;;;;5117543;28;20039;-72
2022/03/24 12:07:38;;;;;;;38.50;27.27;;;15.10;72.50;;;;;;5090613;28;20048;-71
2022/03/24 12:10:06;;;;;;;41.40;30.58;;;15.20;72.30;;;;;;5102643;27;20043;-71
2022/03/24 12:12:32;;;;;;;40.67;29.17;;;15.20;71.10;;;;;;5114210;27;20115;-72
2022/03/24 12:15:07;;;;;;;42.33;28.55;;;15.30;68.50;;;;;;5120101;27;20505;-71
2022/03/24 12:17:34;;;;;;;44.22;31.45;;;15.30;69.20;;;;;;5125099;27;20504;-74
2022/03/24 12:20:02;;;;;;;39.60;30.40;;;15.30;67.50;;;;;;5096819;27;20489;-76
2022/03/24 12:22:36;;;;;;;39.72;30.38;;;15.30;67.20;;;;;;5115310;27;20054;-74
2022/03/24 12:25:01;;;;;;;43.67;32.72;;;15.30;66.70;;;;;;5119593;27;20405;-76
2022/03/24 12:27:29;;;;;;;48.83;32.72;;;15.40;65.00;;;;;;5115609;27;20051;-75
2022/03/24 12:30:13;;;;;;;48.08;33.05;;;15.40;64.50;;;;;;5100525;28;20051;-75
2022/03/24 12:32:39;;;;;;;43.13;30.38;;;15.40;62.10;;;;;;5118354;28;20083;-77
2022/03/24 12:35:06;;;;;;;45.40;30.98;;;15.30;63.00;;;;;;5097782;27;20036;-75
2022/03/24 12:37:31;;;;;;;46.03;31.27;;;15.30;63.80;;;;;;5115972;27;20127;-74
2022/03/24 12:40:09;;;;;;;42.30;31.92;;;15.40;64.10;;;;;;5117303;27;20119;-75
2022/03/24 12:42:49;;;;;;;45.25;33.53;;;15.40;63.60;;;;;;5115252;28;20055;-75
2022/03/24 12:45:38;;;;;;;44.45;33.08;;;15.50;63.20;;;;;;5115195;28;20062;-75
2022/03/24 12:48:09;;;;;;;45.47;32.83;;;15.50;65.20;;;;;;5093322;28;20051;-74
2022/03/24 12:50:37;;;;;;;44.55;33.30;;;15.60;63.90;;;;;;5073264;28;20114;-74
2022/03/24 12:53:08;;;;;;;48.10;33.40;;;15.60;63.90;;;;;;5084849;28;20405;-74
2022/03/24 12:55:42;;;;;;;46.40;34.10;;;15.60;64.20;;;;;;5095184;28;20047;-75
2022/03/24 12:58:18;;;;;;;47.85;35.78;;;15.60;64.10;;;;;;5096236;28;20431;-74